sensor_id;sensor_type;location;lat;lon;timestamp;temperature;humidity
666;DHT22;315;48.738;9.126;2023-05-16T00:02:17;13.00;99.90
666;DHT22;315;48.738;9.126;2023-05-16T00:04:43;13.00;99.90
666;DHT22;315;48.738;9.126;2023-05-16T00:07:10;12.90;99.90
666;DHT22;315;48.738;9.126;2023-05-16T00:09:36;12.90;99.90
666;DHT22;315;48.738;9.126;2023-05-16T00:12:01;12.80;99.90
666;DHT22;315;48.738;9.126;2023-05-16T00:14:27;12.80;99.90
666;DHT22;315;48.738;9.126;2023-05-16T00:16:53;12.80;99.90
666;DHT22;315;48.738;9.126;2023-05-16T00:19:19;12.90;99.90
666;DHT22;315;48.738;9.126;2023-05-16T00:21:45;13.00;99.90
666;DHT22;315;48.738;9.126;2023-05-16T00:24:10;13.20;99.90
666;DHT22;315;48.738;9.126;2023-05-16T00:26:36;13.30;99.90
666;DHT22;315;48.738;9.126;2023-05-16T00:29:01;13.20;99.90
666;DHT22;315;48.738;9.126;2023-05-16T00:31:27;13.20;99.90
666;DHT22;315;48.738;9.126;2023-05-16T00:33:52;13.00;99.90
666;DHT22;315;48.738;9.126;2023-05-16T00:36:19;12.90;99.90
666;DHT22;315;48.738;9.126;2023-05-16T00:38:45;13.00;99.90
666;DHT22;315;48.738;9.126;2023-05-16T00:41:11;13.10;99.90
666;DHT22;315;48.738;9.126;2023-05-16T00:43:36;13.20;99.90
666;DHT22;315;48.738;9.126;2023-05-16T00:46:04;13.10;99.90
666;DHT22;315;48.738;9.126;2023-05-16T00:48:29;13.10;99.90
666;DHT22;315;48.738;9.126;2023-05-16T00:50:55;13.00;99.90
666;DHT22;315;48.738;9.126;2023-05-16T00:53:22;13.00;99.90
666;DHT22;315;48.738;9.126;2023-05-16T00:55:48;13.00;99.90
666;DHT22;315;48.738;9.126;2023-05-16T00:58:14;13.00;99.90
666;DHT22;315;48.738;9.126;2023-05-16T01:00:40;13.00;99.90
666;DHT22;315;48.738;9.126;2023-05-16T01:03:06;12.90;99.90
666;DHT22;315;48.738;9.126;2023-05-16T01:05:32;12.90;99.90
666;DHT22;315;48.738;9.126;2023-05-16T01:07:58;12.90;99.90
666;DHT22;315;48.738;9.126;2023-05-16T01:10:25;12.90;99.90
666;DHT22;315;48.738;9.126;2023-05-16T01:13:11;12.90;99.90
666;DHT22;315;48.738;9.126;2023-05-16T01:16:05;12.80;99.90
666;DHT22;315;48.738;9.126;2023-05-16T01:18:41;12.80;99.90
666;DHT22;315;48.738;9.126;2023-05-16T01:21:18;12.80;99.90
666;DHT22;315;48.738;9.126;2023-05-16T01:24:12;12.80;99.90
666;DHT22;315;48.738;9.126;2023-05-16T01:26:39;12.90;99.90
666;DHT22;315;48.738;9.126;2023-05-16T01:29:06;13.00;99.90
666;DHT22;315;48.738;9.126;2023-05-16T01:31:32;13.00;99.90
666;DHT22;315;48.738;9.126;2023-05-16T01:33:57;12.80;99.90
666;DHT22;315;48.738;9.126;2023-05-16T01:41:59;12.90;99.90
666;DHT22;315;48.738;9.126;2023-05-16T01:47:02;12.90;99.90
666;DHT22;315;48.738;9.126;2023-05-16T01:49:38;12.90;99.90
666;DHT22;315;48.738;9.126;2023-05-16T01:52:08;12.90;99.90
666;DHT22;315;48.738;9.126;2023-05-16T01:54:37;12.80;99.90
666;DHT22;315;48.738;9.126;2023-05-16T01:57:04;12.80;99.90
666;DHT22;315;48.738;9.126;2023-05-16T01:59:32;12.70;99.90
666;DHT22;315;48.738;9.126;2023-05-16T02:01:58;12.70;99.90
666;DHT22;315;48.738;9.126;2023-05-16T02:04:23;12.50;99.90
666;DHT22;315;48.738;9.126;2023-05-16T02:06:50;12.50;99.90
666;DHT22;315;48.738;9.126;2023-05-16T02:09:16;12.50;99.90
666;DHT22;315;48.738;9.126;2023-05-16T02:11:41;12.40;99.90
666;DHT22;315;48.738;9.126;2023-05-16T02:14:07;12.30;99.90
666;DHT22;315;48.738;9.126;2023-05-16T02:16:34;12.30;99.90
666;DHT22;315;48.738;9.126;2023-05-16T02:18:59;12.40;99.90
666;DHT22;315;48.738;9.126;2023-05-16T02:21:25;12.40;99.90
666;DHT22;315;48.738;9.126;2023-05-16T02:23:50;12.50;99.90
666;DHT22;315;48.738;9.126;2023-05-16T02:26:16;12.40;99.90
666;DHT22;315;48.738;9.126;2023-05-16T02:28:41;12.40;99.90
666;DHT22;315;48.738;9.126;2023-05-16T02:31:07;12.40;99.90
666;DHT22;315;48.738;9.126;2023-05-16T02:33:32;12.50;99.90
666;DHT22;315;48.738;9.126;2023-05-16T02:35:59;12.60;99.90
666;DHT22;315;48.738;9.126;2023-05-16T02:38:24;12.60;99.90
666;DHT22;315;48.738;9.126;2023-05-16T02:40:50;12.60;99.90
666;DHT22;315;48.738;9.126;2023-05-16T02:43:15;12.60;99.90
666;DHT22;315;48.738;9.126;2023-05-16T02:45:41;12.50;99.90
666;DHT22;315;48.738;9.126;2023-05-16T02:48:06;12.50;99.90
666;DHT22;315;48.738;9.126;2023-05-16T02:50:33;12.30;99.90
666;DHT22;315;48.738;9.126;2023-05-16T02:52:59;12.30;99.90
666;DHT22;315;48.738;9.126;2023-05-16T02:55:27;12.30;99.90
666;DHT22;315;48.738;9.126;2023-05-16T02:57:52;12.30;99.90
666;DHT22;315;48.738;9.126;2023-05-16T03:00:18;12.50;99.90
666;DHT22;315;48.738;9.126;2023-05-16T03:02:44;12.50;99.90
666;DHT22;315;48.738;9.126;2023-05-16T03:05:10;12.50;99.90
666;DHT22;315;48.738;9.126;2023-05-16T03:07:36;12.30;99.90
666;DHT22;315;48.738;9.126;2023-05-16T03:10:02;12.40;99.90
666;DHT22;315;48.738;9.126;2023-05-16T03:12:28;12.40;99.90
666;DHT22;315;48.738;9.126;2023-05-16T03:14:53;12.40;99.90
666;DHT22;315;48.738;9.126;2023-05-16T03:17:19;12.40;99.90
666;DHT22;315;48.738;9.126;2023-05-16T03:19:44;12.40;99.90
666;DHT22;315;48.738;9.126;2023-05-16T03:22:10;12.40;99.90
666;DHT22;315;48.738;9.126;2023-05-16T03:24:36;12.40;99.90
666;DHT22;315;48.738;9.126;2023-05-16T03:27:01;12.50;99.90
666;DHT22;315;48.738;9.126;2023-05-16T03:29:29;12.50;99.90
666;DHT22;315;48.738;9.126;2023-05-16T03:31:55;12.40;99.90
666;DHT22;315;48.738;9.126;2023-05-16T03:34:20;12.30;99.90
666;DHT22;315;48.738;9.126;2023-05-16T03:36:50;12.30;99.90
666;DHT22;315;48.738;9.126;2023-05-16T03:39:16;12.20;99.90
666;DHT22;315;48.738;9.126;2023-05-16T03:41:42;12.00;99.90
666;DHT22;315;48.738;9.126;2023-05-16T03:44:07;11.90;99.90
666;DHT22;315;48.738;9.126;2023-05-16T03:46:34;11.90;99.90
666;DHT22;315;48.738;9.126;2023-05-16T03:49:00;11.80;99.90
666;DHT22;315;48.738;9.126;2023-05-16T03:51:25;11.80;99.90
666;DHT22;315;48.738;9.126;2023-05-16T03:53:51;11.80;99.90
666;DHT22;315;48.738;9.126;2023-05-16T03:56:16;11.70;99.90
666;DHT22;315;48.738;9.126;2023-05-16T03:58:42;11.70;99.90
666;DHT22;315;48.738;9.126;2023-05-16T04:01:07;11.80;99.90
666;DHT22;315;48.738;9.126;2023-05-16T04:03:33;11.90;99.90
666;DHT22;315;48.738;9.126;2023-05-16T04:05:58;11.80;99.90
666;DHT22;315;48.738;9.126;2023-05-16T04:08:24;11.90;99.90
666;DHT22;315;48.738;9.126;2023-05-16T04:10:50;11.90;99.90
666;DHT22;315;48.738;9.126;2023-05-16T04:13:16;11.90;99.90
666;DHT22;315;48.738;9.126;2023-05-16T04:15:41;12.00;99.90
666;DHT22;315;48.738;9.126;2023-05-16T04:18:07;12.00;99.90
666;DHT22;315;48.738;9.126;2023-05-16T04:20:33;12.00;99.90
666;DHT22;315;48.738;9.126;2023-05-16T04:22:59;12.00;99.90
666;DHT22;315;48.738;9.126;2023-05-16T04:25:25;12.10;99.90
666;DHT22;315;48.738;9.126;2023-05-16T04:27:50;12.10;99.90
666;DHT22;315;48.738;9.126;2023-05-16T04:30:16;12.20;99.90
666;DHT22;315;48.738;9.126;2023-05-16T04:32:42;12.10;99.90
666;DHT22;315;48.738;9.126;2023-05-16T04:35:08;12.10;99.90
666;DHT22;315;48.738;9.126;2023-05-16T04:37:33;12.20;99.90
666;DHT22;315;48.738;9.126;2023-05-16T04:40:00;12.30;99.90
666;DHT22;315;48.738;9.126;2023-05-16T04:42:26;12.30;99.90
666;DHT22;315;48.738;9.126;2023-05-16T04:44:51;12.40;99.90
666;DHT22;315;48.738;9.126;2023-05-16T04:47:17;12.50;99.90
666;DHT22;315;48.738;9.126;2023-05-16T04:49:42;12.40;99.90
666;DHT22;315;48.738;9.126;2023-05-16T04:52:08;12.40;99.90
666;DHT22;315;48.738;9.126;2023-05-16T04:54:34;12.50;99.90
666;DHT22;315;48.738;9.126;2023-05-16T04:56:59;12.60;99.90
666;DHT22;315;48.738;9.126;2023-05-16T04:59:25;12.50;99.90
666;DHT22;315;48.738;9.126;2023-05-16T05:01:51;12.60;99.90
666;DHT22;315;48.738;9.126;2023-05-16T05:04:16;12.70;99.90
666;DHT22;315;48.738;9.126;2023-05-16T05:06:42;12.60;99.90
666;DHT22;315;48.738;9.126;2023-05-16T05:09:08;12.60;99.90
666;DHT22;315;48.738;9.126;2023-05-16T05:11:34;12.60;99.90
666;DHT22;315;48.738;9.126;2023-05-16T05:14:00;12.50;99.90
666;DHT22;315;48.738;9.126;2023-05-16T05:16:25;12.60;99.90
666;DHT22;315;48.738;9.126;2023-05-16T05:18:51;12.60;99.90
666;DHT22;315;48.738;9.126;2023-05-16T05:21:17;12.50;99.90
666;DHT22;315;48.738;9.126;2023-05-16T05:23:44;12.50;99.90
666;DHT22;315;48.738;9.126;2023-05-16T05:26:10;12.70;99.90
666;DHT22;315;48.738;9.126;2023-05-16T05:28:36;13.20;99.90
666;DHT22;315;48.738;9.126;2023-05-16T05:31:03;12.80;99.90
666;DHT22;315;48.738;9.126;2023-05-16T05:33:30;12.70;99.90
666;DHT22;315;48.738;9.126;2023-05-16T05:35:56;12.70;99.90
666;DHT22;315;48.738;9.126;2023-05-16T05:38:21;12.80;99.90
666;DHT22;315;48.738;9.126;2023-05-16T05:40:47;13.20;99.90
666;DHT22;315;48.738;9.126;2023-05-16T05:43:14;12.90;99.90
666;DHT22;315;48.738;9.126;2023-05-16T05:45:40;12.60;99.90
666;DHT22;315;48.738;9.126;2023-05-16T05:48:06;12.80;99.90
666;DHT22;315;48.738;9.126;2023-05-16T05:50:32;13.10;99.90
666;DHT22;315;48.738;9.126;2023-05-16T05:52:57;12.60;99.90
666;DHT22;315;48.738;9.126;2023-05-16T05:55:23;12.90;99.90
666;DHT22;315;48.738;9.126;2023-05-16T05:57:48;12.80;99.90
666;DHT22;315;48.738;9.126;2023-05-16T06:00:14;12.80;99.90
666;DHT22;315;48.738;9.126;2023-05-16T06:02:40;12.90;99.90
666;DHT22;315;48.738;9.126;2023-05-16T06:05:06;12.80;99.90
666;DHT22;315;48.738;9.126;2023-05-16T06:07:31;12.90;99.90
666;DHT22;315;48.738;9.126;2023-05-16T06:09:57;12.90;99.90
666;DHT22;315;48.738;9.126;2023-05-16T06:12:24;13.00;99.90
666;DHT22;315;48.738;9.126;2023-05-16T06:14:50;13.00;99.90
666;DHT22;315;48.738;9.126;2023-05-16T06:17:15;13.00;99.90
666;DHT22;315;48.738;9.126;2023-05-16T06:19:41;13.10;99.90
666;DHT22;315;48.738;9.126;2023-05-16T06:22:06;13.20;99.90
666;DHT22;315;48.738;9.126;2023-05-16T06:24:31;13.40;99.90
666;DHT22;315;48.738;9.126;2023-05-16T06:26:57;13.60;99.90
666;DHT22;315;48.738;9.126;2023-05-16T06:29:23;13.70;99.90
666;DHT22;315;48.738;9.126;2023-05-16T06:31:48;13.70;99.90
666;DHT22;315;48.738;9.126;2023-05-16T06:34:14;13.70;99.90
666;DHT22;315;48.738;9.126;2023-05-16T06:36:39;13.70;99.90
666;DHT22;315;48.738;9.126;2023-05-16T06:39:05;13.70;99.90
666;DHT22;315;48.738;9.126;2023-05-16T06:41:30;13.70;99.90
666;DHT22;315;48.738;9.126;2023-05-16T06:43:56;13.60;99.90
666;DHT22;315;48.738;9.126;2023-05-16T06:46:22;13.40;99.90
666;DHT22;315;48.738;9.126;2023-05-16T06:48:47;13.50;99.90
666;DHT22;315;48.738;9.126;2023-05-16T06:51:13;13.60;99.90
666;DHT22;315;48.738;9.126;2023-05-16T06:53:38;13.80;99.90
666;DHT22;315;48.738;9.126;2023-05-16T06:56:04;13.80;99.90
666;DHT22;315;48.738;9.126;2023-05-16T06:58:29;13.70;99.90
666;DHT22;315;48.738;9.126;2023-05-16T07:00:55;13.80;99.90
666;DHT22;315;48.738;9.126;2023-05-16T07:03:21;13.60;99.90
666;DHT22;315;48.738;9.126;2023-05-16T07:05:46;13.40;99.90
666;DHT22;315;48.738;9.126;2023-05-16T07:08:12;13.40;99.90
666;DHT22;315;48.738;9.126;2023-05-16T07:10:38;13.30;99.90
666;DHT22;315;48.738;9.126;2023-05-16T07:13:04;13.30;99.90
666;DHT22;315;48.738;9.126;2023-05-16T07:15:30;13.40;99.90
666;DHT22;315;48.738;9.126;2023-05-16T07:17:56;13.40;99.90
666;DHT22;315;48.738;9.126;2023-05-16T07:20:21;13.40;99.90
666;DHT22;315;48.738;9.126;2023-05-16T07:22:47;13.40;99.90
666;DHT22;315;48.738;9.126;2023-05-16T07:25:13;13.70;99.90
666;DHT22;315;48.738;9.126;2023-05-16T07:27:40;13.40;99.90
666;DHT22;315;48.738;9.126;2023-05-16T07:30:08;13.40;99.90
666;DHT22;315;48.738;9.126;2023-05-16T07:32:34;13.50;99.90
666;DHT22;315;48.738;9.126;2023-05-16T07:34:59;13.50;99.90
666;DHT22;315;48.738;9.126;2023-05-16T07:37:25;13.40;99.90
666;DHT22;315;48.738;9.126;2023-05-16T07:39:50;13.40;99.90
666;DHT22;315;48.738;9.126;2023-05-16T07:42:16;13.40;99.90
666;DHT22;315;48.738;9.126;2023-05-16T07:44:41;13.30;99.90
666;DHT22;315;48.738;9.126;2023-05-16T07:47:07;13.30;99.90
666;DHT22;315;48.738;9.126;2023-05-16T07:49:32;13.50;99.90
666;DHT22;315;48.738;9.126;2023-05-16T07:51:58;13.60;99.90
666;DHT22;315;48.738;9.126;2023-05-16T07:54:24;13.70;99.90
666;DHT22;315;48.738;9.126;2023-05-16T07:56:49;14.00;99.90
666;DHT22;315;48.738;9.126;2023-05-16T07:59:15;14.20;99.90
666;DHT22;315;48.738;9.126;2023-05-16T08:01:40;14.10;99.90
666;DHT22;315;48.738;9.126;2023-05-16T08:04:06;14.10;99.90
666;DHT22;315;48.738;9.126;2023-05-16T08:06:31;14.20;99.90
666;DHT22;315;48.738;9.126;2023-05-16T08:08:58;14.00;99.90
666;DHT22;315;48.738;9.126;2023-05-16T08:11:24;14.10;99.90
666;DHT22;315;48.738;9.126;2023-05-16T08:13:50;14.10;99.90
666;DHT22;315;48.738;9.126;2023-05-16T08:16:15;14.10;99.90
666;DHT22;315;48.738;9.126;2023-05-16T08:18:41;14.10;99.90
666;DHT22;315;48.738;9.126;2023-05-16T08:21:07;14.10;99.90
666;DHT22;315;48.738;9.126;2023-05-16T08:23:33;14.20;99.90
666;DHT22;315;48.738;9.126;2023-05-16T08:25:59;14.20;99.90
666;DHT22;315;48.738;9.126;2023-05-16T08:28:24;14.20;99.90
666;DHT22;315;48.738;9.126;2023-05-16T08:30:50;14.30;99.90
666;DHT22;315;48.738;9.126;2023-05-16T08:33:15;14.30;99.90
666;DHT22;315;48.738;9.126;2023-05-16T08:35:42;13.90;99.90
666;DHT22;315;48.738;9.126;2023-05-16T08:38:08;13.50;99.90
666;DHT22;315;48.738;9.126;2023-05-16T08:40:34;13.50;99.90
666;DHT22;315;48.738;9.126;2023-05-16T08:42:59;13.50;99.90
666;DHT22;315;48.738;9.126;2023-05-16T08:45:25;13.50;99.90
666;DHT22;315;48.738;9.126;2023-05-16T08:47:53;13.50;99.90
666;DHT22;315;48.738;9.126;2023-05-16T08:50:20;13.60;99.90
666;DHT22;315;48.738;9.126;2023-05-16T08:52:46;13.60;99.90
666;DHT22;315;48.738;9.126;2023-05-16T08:55:16;13.70;99.90
666;DHT22;315;48.738;9.126;2023-05-16T08:57:44;13.90;99.90
666;DHT22;315;48.738;9.126;2023-05-16T09:00:10;14.00;99.90
666;DHT22;315;48.738;9.126;2023-05-16T09:02:40;13.90;99.90
666;DHT22;315;48.738;9.126;2023-05-16T09:05:16;13.70;99.90
666;DHT22;315;48.738;9.126;2023-05-16T09:07:43;13.50;99.90
666;DHT22;315;48.738;9.126;2023-05-16T09:10:09;13.40;99.90
666;DHT22;315;48.738;9.126;2023-05-16T09:12:35;13.40;99.90
666;DHT22;315;48.738;9.126;2023-05-16T09:15:03;13.40;99.90
666;DHT22;315;48.738;9.126;2023-05-16T09:17:42;13.30;99.90
666;DHT22;315;48.738;9.126;2023-05-16T09:20:18;13.20;99.90
666;DHT22;315;48.738;9.126;2023-05-16T09:25:17;13.10;99.90
666;DHT22;315;48.738;9.126;2023-05-16T09:27:44;13.00;99.90
666;DHT22;315;48.738;9.126;2023-05-16T09:30:13;13.00;99.90
666;DHT22;315;48.738;9.126;2023-05-16T09:32:43;13.30;99.90
666;DHT22;315;48.738;9.126;2023-05-16T09:35:13;13.60;99.90
666;DHT22;315;48.738;9.126;2023-05-16T09:37:44;13.90;99.90
666;DHT22;315;48.738;9.126;2023-05-16T09:40:09;14.10;99.90
666;DHT22;315;48.738;9.126;2023-05-16T09:42:35;14.40;99.90
666;DHT22;315;48.738;9.126;2023-05-16T09:45:00;14.40;99.90
666;DHT22;315;48.738;9.126;2023-05-16T09:47:27;14.60;99.90
666;DHT22;315;48.738;9.126;2023-05-16T09:49:53;14.90;99.90
666;DHT22;315;48.738;9.126;2023-05-16T09:52:18;15.10;99.90
666;DHT22;315;48.738;9.126;2023-05-16T09:54:45;15.40;99.90
666;DHT22;315;48.738;9.126;2023-05-16T09:57:17;15.70;99.90
666;DHT22;315;48.738;9.126;2023-05-16T09:59:44;15.80;99.90
666;DHT22;315;48.738;9.126;2023-05-16T10:02:10;15.70;99.90
666;DHT22;315;48.738;9.126;2023-05-16T10:04:37;16.00;99.90
666;DHT22;315;48.738;9.126;2023-05-16T10:07:03;15.90;99.90
666;DHT22;315;48.738;9.126;2023-05-16T10:09:31;15.60;99.90
666;DHT22;315;48.738;9.126;2023-05-16T10:12:01;15.30;99.90
666;DHT22;315;48.738;9.126;2023-05-16T10:14:29;15.40;99.90
666;DHT22;315;48.738;9.126;2023-05-16T10:16:58;15.80;99.90
666;DHT22;315;48.738;9.126;2023-05-16T10:19:25;16.20;99.90
666;DHT22;315;48.738;9.126;2023-05-16T10:21:54;16.60;99.90
666;DHT22;315;48.738;9.126;2023-05-16T10:24:30;16.90;99.90
666;DHT22;315;48.738;9.126;2023-05-16T10:26:58;17.40;99.90
666;DHT22;315;48.738;9.126;2023-05-16T10:29:24;17.50;99.90
666;DHT22;315;48.738;9.126;2023-05-16T10:31:50;17.80;99.90
666;DHT22;315;48.738;9.126;2023-05-16T10:34:17;17.20;99.90
666;DHT22;315;48.738;9.126;2023-05-16T10:36:43;17.10;99.90
666;DHT22;315;48.738;9.126;2023-05-16T10:39:10;17.40;99.90
666;DHT22;315;48.738;9.126;2023-05-16T10:41:36;17.60;99.90
666;DHT22;315;48.738;9.126;2023-05-16T10:44:02;17.70;99.90
666;DHT22;315;48.738;9.126;2023-05-16T10:46:30;17.30;99.90
666;DHT22;315;48.738;9.126;2023-05-16T10:48:56;16.80;99.90
666;DHT22;315;48.738;9.126;2023-05-16T10:53:50;15.70;99.90
666;DHT22;315;48.738;9.126;2023-05-16T10:56:25;15.10;99.90
666;DHT22;315;48.738;9.126;2023-05-16T10:58:52;15.00;99.90
666;DHT22;315;48.738;9.126;2023-05-16T11:01:23;14.60;99.90
666;DHT22;315;48.738;9.126;2023-05-16T11:03:59;14.30;99.90
666;DHT22;315;48.738;9.126;2023-05-16T11:17:13;13.30;99.90
666;DHT22;315;48.738;9.126;2023-05-16T11:19:44;13.30;99.90
666;DHT22;315;48.738;9.126;2023-05-16T11:22:31;13.20;99.90
666;DHT22;315;48.738;9.126;2023-05-16T11:25:00;13.20;99.90
666;DHT22;315;48.738;9.126;2023-05-16T11:27:29;13.20;99.90
666;DHT22;315;48.738;9.126;2023-05-16T11:32:37;12.90;99.90
666;DHT22;315;48.738;9.126;2023-05-16T11:35:04;12.90;99.90
666;DHT22;315;48.738;9.126;2023-05-16T11:37:31;12.80;99.90
666;DHT22;315;48.738;9.126;2023-05-16T11:40:00;12.70;99.90
666;DHT22;315;48.738;9.126;2023-05-16T11:42:30;12.50;99.90
666;DHT22;315;48.738;9.126;2023-05-16T11:45:09;12.40;99.90
666;DHT22;315;48.738;9.126;2023-05-16T11:47:40;12.50;99.90
666;DHT22;315;48.738;9.126;2023-05-16T11:50:14;12.50;99.90
666;DHT22;315;48.738;9.126;2023-05-16T11:52:53;12.50;99.90
666;DHT22;315;48.738;9.126;2023-05-16T11:55:22;12.60;99.90
666;DHT22;315;48.738;9.126;2023-05-16T11:57:50;12.60;99.90
666;DHT22;315;48.738;9.126;2023-05-16T12:00:17;12.60;99.90
666;DHT22;315;48.738;9.126;2023-05-16T12:02:47;12.60;99.90
666;DHT22;315;48.738;9.126;2023-05-16T12:05:14;12.70;99.90
666;DHT22;315;48.738;9.126;2023-05-16T12:07:42;12.70;99.90
666;DHT22;315;48.738;9.126;2023-05-16T12:10:10;12.70;99.90
666;DHT22;315;48.738;9.126;2023-05-16T12:12:39;12.70;99.90
666;DHT22;315;48.738;9.126;2023-05-16T12:15:07;12.70;99.90
666;DHT22;315;48.738;9.126;2023-05-16T12:17:34;12.80;99.90
666;DHT22;315;48.738;9.126;2023-05-16T12:20:00;12.90;99.90
666;DHT22;315;48.738;9.126;2023-05-16T12:22:26;12.90;99.90
666;DHT22;315;48.738;9.126;2023-05-16T12:24:52;12.90;99.90
666;DHT22;315;48.738;9.126;2023-05-16T12:27:21;12.90;99.90
666;DHT22;315;48.738;9.126;2023-05-16T12:29:47;12.90;99.90
666;DHT22;315;48.738;9.126;2023-05-16T12:32:17;12.80;99.90
666;DHT22;315;48.738;9.126;2023-05-16T12:34:49;12.80;99.90
666;DHT22;315;48.738;9.126;2023-05-16T12:37:15;12.80;99.90
666;DHT22;315;48.738;9.126;2023-05-16T12:39:41;13.00;99.90
666;DHT22;315;48.738;9.126;2023-05-16T12:42:07;13.20;99.90
666;DHT22;315;48.738;9.126;2023-05-16T12:44:34;13.40;99.90
666;DHT22;315;48.738;9.126;2023-05-16T12:47:01;13.50;99.90
666;DHT22;315;48.738;9.126;2023-05-16T12:49:26;13.70;99.90
666;DHT22;315;48.738;9.126;2023-05-16T12:51:54;13.80;99.90
666;DHT22;315;48.738;9.126;2023-05-16T12:54:20;13.80;99.90
666;DHT22;315;48.738;9.126;2023-05-16T12:56:47;13.90;99.90
666;DHT22;315;48.738;9.126;2023-05-16T12:59:13;13.90;99.90
666;DHT22;315;48.738;9.126;2023-05-16T13:01:39;13.70;99.90
666;DHT22;315;48.738;9.126;2023-05-16T13:04:05;13.70;99.90
666;DHT22;315;48.738;9.126;2023-05-16T13:06:31;13.60;99.90
666;DHT22;315;48.738;9.126;2023-05-16T13:08:57;13.70;99.90
666;DHT22;315;48.738;9.126;2023-05-16T13:11:23;13.70;99.90
666;DHT22;315;48.738;9.126;2023-05-16T13:13:49;13.70;99.90
666;DHT22;315;48.738;9.126;2023-05-16T13:16:14;13.70;99.90
666;DHT22;315;48.738;9.126;2023-05-16T13:18:40;13.60;99.90
666;DHT22;315;48.738;9.126;2023-05-16T13:21:06;13.60;99.90
666;DHT22;315;48.738;9.126;2023-05-16T13:23:31;13.40;99.90
666;DHT22;315;48.738;9.126;2023-05-16T13:25:57;13.30;99.90
666;DHT22;315;48.738;9.126;2023-05-16T13:28:26;13.10;99.90
666;DHT22;315;48.738;9.126;2023-05-16T13:30:51;12.90;99.90
666;DHT22;315;48.738;9.126;2023-05-16T13:33:17;12.80;99.90
666;DHT22;315;48.738;9.126;2023-05-16T13:35:43;12.90;99.90
666;DHT22;315;48.738;9.126;2023-05-16T13:38:09;12.80;99.90
666;DHT22;315;48.738;9.126;2023-05-16T13:40:35;12.80;99.90
666;DHT22;315;48.738;9.126;2023-05-16T13:43:01;12.70;99.90
666;DHT22;315;48.738;9.126;2023-05-16T13:45:27;12.70;99.90
666;DHT22;315;48.738;9.126;2023-05-16T13:47:53;12.70;99.90
666;DHT22;315;48.738;9.126;2023-05-16T13:50:18;12.60;99.90
666;DHT22;315;48.738;9.126;2023-05-16T13:52:45;12.60;99.90
666;DHT22;315;48.738;9.126;2023-05-16T13:55:11;12.50;99.90
666;DHT22;315;48.738;9.126;2023-05-16T13:57:37;12.50;99.90
666;DHT22;315;48.738;9.126;2023-05-16T14:00:03;12.70;99.90
666;DHT22;315;48.738;9.126;2023-05-16T14:02:39;12.90;99.90
666;DHT22;315;48.738;9.126;2023-05-16T14:05:05;12.90;99.90
666;DHT22;315;48.738;9.126;2023-05-16T14:07:31;12.90;99.90
666;DHT22;315;48.738;9.126;2023-05-16T14:09:57;13.00;99.90
666;DHT22;315;48.738;9.126;2023-05-16T14:12:22;13.20;99.90
666;DHT22;315;48.738;9.126;2023-05-16T14:14:48;13.10;99.90
666;DHT22;315;48.738;9.126;2023-05-16T14:17:13;13.10;99.90
666;DHT22;315;48.738;9.126;2023-05-16T14:19:39;13.00;99.90
666;DHT22;315;48.738;9.126;2023-05-16T14:22:04;12.90;99.90
666;DHT22;315;48.738;9.126;2023-05-16T14:24:31;12.80;99.90
666;DHT22;315;48.738;9.126;2023-05-16T14:26:58;12.80;99.90
666;DHT22;315;48.738;9.126;2023-05-16T14:29:23;12.80;99.90
666;DHT22;315;48.738;9.126;2023-05-16T14:31:49;12.80;99.90
666;DHT22;315;48.738;9.126;2023-05-16T14:34:15;12.90;99.90
666;DHT22;315;48.738;9.126;2023-05-16T14:36:40;13.00;99.90
666;DHT22;315;48.738;9.126;2023-05-16T14:39:06;13.00;99.90
666;DHT22;315;48.738;9.126;2023-05-16T14:41:32;13.00;99.90
666;DHT22;315;48.738;9.126;2023-05-16T14:43:58;13.10;99.90
666;DHT22;315;48.738;9.126;2023-05-16T14:46:23;13.10;99.90
666;DHT22;315;48.738;9.126;2023-05-16T14:48:49;13.10;99.90
666;DHT22;315;48.738;9.126;2023-05-16T14:51:15;13.20;99.90
666;DHT22;315;48.738;9.126;2023-05-16T14:53:41;13.20;99.90
666;DHT22;315;48.738;9.126;2023-05-16T14:56:06;13.20;99.90
666;DHT22;315;48.738;9.126;2023-05-16T14:58:32;13.20;99.90
666;DHT22;315;48.738;9.126;2023-05-16T15:00:57;13.20;99.90
666;DHT22;315;48.738;9.126;2023-05-16T15:03:23;13.30;99.90
666;DHT22;315;48.738;9.126;2023-05-16T15:05:49;13.40;99.90
666;DHT22;315;48.738;9.126;2023-05-16T15:08:14;13.40;99.90
666;DHT22;315;48.738;9.126;2023-05-16T15:10:40;13.30;99.90
666;DHT22;315;48.738;9.126;2023-05-16T15:13:05;13.40;99.90
666;DHT22;315;48.738;9.126;2023-05-16T15:15:31;13.50;99.90
666;DHT22;315;48.738;9.126;2023-05-16T15:17:57;13.50;99.90
666;DHT22;315;48.738;9.126;2023-05-16T15:20:23;13.90;99.90
666;DHT22;315;48.738;9.126;2023-05-16T15:22:50;13.30;99.90
666;DHT22;315;48.738;9.126;2023-05-16T15:25:16;13.40;99.90
666;DHT22;315;48.738;9.126;2023-05-16T15:27:41;13.40;99.90
666;DHT22;315;48.738;9.126;2023-05-16T15:30:07;13.50;99.90
666;DHT22;315;48.738;9.126;2023-05-16T15:32:33;13.50;99.90
666;DHT22;315;48.738;9.126;2023-05-16T15:34:58;13.80;99.90
666;DHT22;315;48.738;9.126;2023-05-16T15:37:24;13.80;99.90
666;DHT22;315;48.738;9.126;2023-05-16T15:39:50;13.70;99.90
666;DHT22;315;48.738;9.126;2023-05-16T15:42:16;13.90;99.90
666;DHT22;315;48.738;9.126;2023-05-16T15:44:43;14.00;99.90
666;DHT22;315;48.738;9.126;2023-05-16T15:47:08;14.20;99.90
666;DHT22;315;48.738;9.126;2023-05-16T15:49:35;14.20;99.90
666;DHT22;315;48.738;9.126;2023-05-16T15:52:00;13.90;99.90
666;DHT22;315;48.738;9.126;2023-05-16T15:54:26;13.80;99.90
666;DHT22;315;48.738;9.126;2023-05-16T15:56:52;13.60;99.90
666;DHT22;315;48.738;9.126;2023-05-16T15:59:18;13.70;99.90
666;DHT22;315;48.738;9.126;2023-05-16T16:01:43;13.90;99.90
666;DHT22;315;48.738;9.126;2023-05-16T16:04:09;14.00;99.90
666;DHT22;315;48.738;9.126;2023-05-16T16:06:34;14.00;99.90
666;DHT22;315;48.738;9.126;2023-05-16T16:09:00;14.20;99.90
666;DHT22;315;48.738;9.126;2023-05-16T16:11:26;14.30;99.90
666;DHT22;315;48.738;9.126;2023-05-16T16:13:51;14.50;99.90
666;DHT22;315;48.738;9.126;2023-05-16T16:16:17;14.50;99.90
666;DHT22;315;48.738;9.126;2023-05-16T16:18:42;14.50;99.90
666;DHT22;315;48.738;9.126;2023-05-16T16:21:10;14.20;99.90
666;DHT22;315;48.738;9.126;2023-05-16T16:23:36;13.90;99.90
666;DHT22;315;48.738;9.126;2023-05-16T16:26:03;13.70;99.90
666;DHT22;315;48.738;9.126;2023-05-16T16:28:29;13.60;99.90
666;DHT22;315;48.738;9.126;2023-05-16T16:30:54;13.50;99.90
666;DHT22;315;48.738;9.126;2023-05-16T16:33:20;13.50;99.90
666;DHT22;315;48.738;9.126;2023-05-16T16:35:45;13.30;99.90
666;DHT22;315;48.738;9.126;2023-05-16T16:38:11;13.30;99.90
666;DHT22;315;48.738;9.126;2023-05-16T16:40:36;13.20;99.90
666;DHT22;315;48.738;9.126;2023-05-16T16:43:02;13.20;99.90
666;DHT22;315;48.738;9.126;2023-05-16T16:45:30;13.20;99.90
666;DHT22;315;48.738;9.126;2023-05-16T16:47:56;13.20;99.90
666;DHT22;315;48.738;9.126;2023-05-16T16:50:21;13.20;99.90
666;DHT22;315;48.738;9.126;2023-05-16T16:52:47;13.30;99.90
666;DHT22;315;48.738;9.126;2023-05-16T16:55:13;13.30;99.90
666;DHT22;315;48.738;9.126;2023-05-16T16:57:40;13.20;99.90